Paris, TX

8:59 AM CDT on September 26, 2017 (GMT -0500)
Cox

Weather History for KPRX - February, 2013

Change the Weather History Date:

Wednesday, February 20, 2013

  Actual Average Record
Temperature  
Mean Temperature 40 °F -  
Max Temperature 46 °F 56 °F 78 °F (2005)
Min Temperature 35 °F 38 °F 26 °F (2006)
Degree Days  
Heating Degree Days 24    
Moisture  
Dew Point 32 °F    
Average Humidity 78    
Maximum Humidity 93    
Minimum Humidity 43    
Precipitation  
Precipitation 0.37 in - - ()
Sea Level Pressure  
Sea Level Pressure 30.13 in    
Wind  
Wind Speed 14 mph (East)    
Max Wind Speed 24 mph    
Max Gust Speed 31 mph    
Visibility 10 miles    
Events      
Averages and records for this station are not official NWS values.
T = Trace of Precipitation, MM = Missing Value Source: NWS Daily Summary

Daily Weather History Graph

Daily Weather History Graph

Search for Another Location

Airport or City:

Trip Planner

Search our weather history database for the weather conditions in past years. The results will help you decide how hot, cold, wet, or windy it might be!

Date:

Astronomy

Feb. 20, 2013 Rise Set
Actual Time 7:00 AM CST 6:11 PM CST
Civil Twilight 6:35 AM CST 6:36 PM CST
Nautical Twilight 6:06 AM CST 7:05 PM CST
Astronomical Twilight 5:37 AM CST 7:34 PM CST
Moon 1:41 PM CST (2/20) 3:12 AM CST (2/20)
Length of Visible Light 12h 01m
Length of Day
11h 10m
Waxing Gibbous, 76% of the Moon is Illuminated
Feb 20
Waxing Gibbous
Feb 25
Full
Mar 4
Last Quarter
Mar 11
New
Mar 19
First Quarter

Hourly Weather History & Observations

Time (CST) Temp. Windchill Dew Point Humidity Pressure Visibility Wind Dir Wind Speed Gust Speed Precip Events Conditions
12:15 AM 46.4 °F 40.7 °F 24.8 °F 43% 30.22 in 10.0 mi East 12.7 mph - N/A   Mostly Cloudy
12:35 AM 46.4 °F 40.7 °F 24.8 °F 43% 30.23 in 10.0 mi East 12.7 mph 16.1 mph N/A   Mostly Cloudy
12:55 AM 46.4 °F 40.4 °F 24.8 °F 43% 30.22 in 10.0 mi East 13.8 mph - N/A   Overcast
1:15 AM 46.4 °F 40.7 °F 24.8 °F 43% 30.23 in 10.0 mi East 12.7 mph - N/A   Scattered Clouds
1:35 AM 46.4 °F 41.1 °F 26.6 °F 46% 30.23 in 10.0 mi East 11.5 mph - N/A   Partly Cloudy
1:55 AM 44.6 °F 39.7 °F 28.4 °F 53% 30.23 in 10.0 mi East 9.2 mph - N/A   Scattered Clouds
2:15 AM 44.6 °F 40.7 °F 30.2 °F 57% 30.24 in 10.0 mi ESE 6.9 mph - N/A   Mostly Cloudy
2:35 AM 44.6 °F 40.2 °F 30.2 °F 57% 30.24 in 10.0 mi East 8.1 mph - N/A   Overcast
2:55 AM 44.6 °F 40.2 °F 30.2 °F 57% 30.24 in 10.0 mi East 8.1 mph - N/A   Overcast
3:15 AM 42.8 °F 38.0 °F 30.2 °F 61% 30.24 in 10.0 mi SE 8.1 mph - N/A   Overcast
3:35 AM 42.8 °F 38.6 °F 30.2 °F 61% 30.24 in 10.0 mi SE 6.9 mph - N/A   Overcast
3:55 AM 42.8 °F 39.3 °F 33.8 °F 70% 30.23 in 10.0 mi East 5.8 mph - 0.01 in   Overcast
4:15 AM 41.0 °F 35.8 °F 33.8 °F 76% 30.22 in 10.0 mi East 8.1 mph - 0.04 in   Overcast
4:35 AM 41.0 °F 34.3 °F 33.8 °F 76% 30.21 in 10.0 mi ENE 11.5 mph - 0.09 in   Overcast
4:55 AM 39.2 °F 33.6 °F 33.8 °F 81% 30.22 in 10.0 mi NE 8.1 mph - 0.15 in   Overcast
5:15 AM 39.2 °F 33.0 °F 33.8 °F 81% 30.21 in 10.0 mi ENE 9.2 mph - 0.01 in   Overcast
5:35 AM 39.2 °F 33.0 °F 35.6 °F 87% 30.21 in 10.0 mi East 9.2 mph - 0.01 in   Overcast
5:55 AM 39.2 °F 32.5 °F 35.6 °F 87% 30.21 in 10.0 mi ENE 10.4 mph - 0.01 in   Overcast
6:15 AM 39.2 °F 31.2 °F 35.6 °F 87% 30.16 in 10.0 mi ENE 13.8 mph - N/A   Mostly Cloudy
6:35 AM 39.2 °F 30.8 °F 35.6 °F 87% 30.15 in 10.0 mi ENE 15.0 mph - N/A   Mostly Cloudy
6:55 AM 39.2 °F 31.2 °F 35.6 °F 87% 30.19 in 10.0 mi East 13.8 mph - N/A   Mostly Cloudy
7:15 AM 41.0 °F 33.9 °F 35.6 °F 81% 30.19 in 10.0 mi East 12.7 mph - N/A   Overcast
7:35 AM 39.2 °F 32.0 °F 35.6 °F 87% 30.18 in 8.0 mi East 11.5 mph - 0.03 in   Overcast
7:55 AM 39.2 °F 33.0 °F 35.6 °F 87% 30.23 in 9.0 mi ENE 9.2 mph - 0.08 in   Mostly Cloudy
8:15 AM 39.2 °F 30.2 °F 35.6 °F 87% 30.19 in 9.0 mi East 17.3 mph - 0.02 in   Overcast
8:35 AM 39.2 °F 32.5 °F 35.6 °F 87% 30.25 in 10.0 mi NNE 10.4 mph - 0.03 in   Mostly Cloudy
9:15 AM 39.2 °F 31.2 °F 35.6 °F 87% 30.24 in 10.0 mi NE 13.8 mph - N/A   Mostly Cloudy
9:35 AM 39.2 °F 32.0 °F 35.6 °F 87% 30.23 in 10.0 mi ENE 11.5 mph - N/A   Mostly Cloudy
9:55 AM 39.2 °F 31.2 °F 35.6 °F 87% 30.23 in 10.0 mi NE 13.8 mph 19.6 mph N/A   Overcast
10:15 AM 39.2 °F 30.5 °F 33.8 °F 81% 30.23 in 10.0 mi ENE 16.1 mph - N/A   Overcast
10:35 AM 39.2 °F 34.2 °F 33.8 °F 81% 30.28 in 10.0 mi NE 6.9 mph - N/A   Overcast
10:55 AM 37.4 °F 29.3 °F 33.8 °F 87% 30.25 in 8.0 mi ENE 12.7 mph - 0.01 in   Overcast
11:15 AM 39.2 °F 30.5 °F 35.6 °F 87% 30.22 in 10.0 mi East 16.1 mph 20.7 mph N/A   Overcast
11:35 AM 39.2 °F 30.2 °F 35.6 °F 87% 30.22 in 10.0 mi East 17.3 mph 21.9 mph N/A   Mostly Cloudy
11:55 AM 39.2 °F 30.5 °F 33.8 °F 81% 30.18 in 10.0 mi East 16.1 mph 21.9 mph N/A   Mostly Cloudy
12:15 PM 39.2 °F 28.5 °F 33.8 °F 81% 30.17 in 10.0 mi East 24.2 mph - N/A   Overcast
12:35 PM 41.0 °F 30.9 °F 33.8 °F 76% 30.15 in 10.0 mi East 24.2 mph - N/A   Overcast
12:55 PM 39.2 °F 28.7 °F 33.8 °F 81% 30.12 in 10.0 mi East 23.0 mph 27.6 mph 0.01 in   Overcast
1:15 PM 39.2 °F 29.8 °F 33.8 °F 81% 30.11 in 10.0 mi East 18.4 mph 23.0 mph 0.01 in   Overcast
1:35 PM 37.4 °F 29.3 °F 33.8 °F 87% 30.13 in 10.0 mi East 12.7 mph - 0.01 in   Overcast
1:55 PM 37.4 °F 27.8 °F 33.8 °F 87% 30.11 in 10.0 mi East 17.3 mph 28.8 mph 0.01 in   Overcast
2:15 PM 37.4 °F 28.2 °F 33.8 °F 87% 30.10 in 9.0 mi East 16.1 mph 21.9 mph 0.03 in   Overcast
2:55 PM 37.4 °F 28.2 °F 33.8 °F 87% 30.08 in 10.0 mi East 16.1 mph - 0.04 in   Overcast
3:15 PM 37.4 °F 27.5 °F 32.0 °F 81% 30.09 in 10.0 mi East 18.4 mph 24.2 mph N/A   Overcast
3:35 PM 37.4 °F 28.2 °F 32.0 °F 81% 30.09 in 10.0 mi East 16.1 mph 25.3 mph N/A   Overcast
3:55 PM 35.6 °F 26.2 °F 32.0 °F 87% 30.10 in 10.0 mi East 15.0 mph 18.4 mph 0.02 in   Overcast
4:15 PM 37.4 °F 27.5 °F 33.8 °F 87% 30.07 in 10.0 mi East 18.4 mph - N/A   Overcast
4:35 PM 35.6 °F 25.5 °F 33.8 °F 93% 30.07 in 10.0 mi East 17.3 mph 20.7 mph N/A   Overcast
4:55 PM 35.6 °F 25.5 °F 33.8 °F 93% 30.06 in 10.0 mi East 17.3 mph 25.3 mph N/A   Overcast
5:15 PM 35.6 °F 25.5 °F 33.8 °F 93% 30.05 in 10.0 mi East 17.3 mph 23.0 mph N/A   Overcast
5:35 PM 35.6 °F 25.2 °F 30.2 °F 81% 30.04 in 10.0 mi East 18.4 mph 26.5 mph N/A   Overcast
5:55 PM 35.6 °F 25.5 °F 32.0 °F 87% 30.03 in 10.0 mi East 17.3 mph - N/A   Overcast
6:15 PM 35.6 °F 25.2 °F 30.2 °F 81% 30.03 in 10.0 mi East 18.4 mph 24.2 mph N/A   Overcast
6:35 PM 35.6 °F 24.0 °F 30.2 °F 81% 30.03 in 10.0 mi East 23.0 mph 26.5 mph N/A   Overcast
6:55 PM 35.6 °F 24.8 °F 30.2 °F 81% 30.03 in 10.0 mi East 19.6 mph 23.0 mph N/A   Overcast
7:15 PM 35.6 °F 25.2 °F 30.2 °F 81% 30.03 in 10.0 mi East 18.4 mph 21.9 mph N/A   Overcast
7:35 PM 35.6 °F 24.8 °F 30.2 °F 81% 30.01 in 10.0 mi East 19.6 mph 25.3 mph N/A   Overcast
7:55 PM 35.6 °F 24.2 °F 30.2 °F 81% 30.01 in 10.0 mi East 21.9 mph 26.5 mph N/A   Overcast
8:15 PM 35.6 °F 25.2 °F 30.2 °F 81% 30.01 in 10.0 mi East 18.4 mph 28.8 mph N/A   Overcast
8:35 PM 35.6 °F 24.8 °F 30.2 °F 81% 30.01 in 10.0 mi East 19.6 mph 24.2 mph N/A   Overcast
8:55 PM 35.6 °F 25.5 °F 30.2 °F 81% 30.01 in 10.0 mi East 17.3 mph 27.6 mph N/A   Overcast
9:15 PM 35.6 °F 25.2 °F 30.2 °F 81% 30.00 in 10.0 mi East 18.4 mph 24.2 mph N/A   Overcast
9:35 PM 35.6 °F 25.2 °F 30.2 °F 81% 30.00 in 10.0 mi East 18.4 mph 25.3 mph N/A   Overcast
9:55 PM 35.6 °F 25.2 °F 30.2 °F 81% 30.00 in 10.0 mi East 18.4 mph 26.5 mph N/A   Overcast
10:35 PM 35.6 °F 24.8 °F 28.4 °F 75% 29.98 in 10.0 mi East 19.6 mph 26.5 mph N/A   Overcast
10:55 PM 35.6 °F 24.8 °F 28.4 °F 75% 29.96 in 10.0 mi East 19.6 mph 27.6 mph N/A   Overcast
11:15 PM 35.6 °F 25.5 °F 28.4 °F 75% 29.95 in 10.0 mi East 17.3 mph - N/A   Overcast
11:35 PM 35.6 °F 24.8 °F 28.4 °F 75% 29.94 in 10.0 mi East 19.6 mph 28.8 mph N/A   Overcast
11:55 PM 35.6 °F 24.8 °F 28.4 °F 75% 29.93 in 10.0 mi East 19.6 mph 31.1 mph N/A   Overcast